Time;durP1;ratioP1;P1;durP2;ratioP2;P2;SDS_P1;SDS_P2;PMS_P1;PMS_P2;Temp;Humidity;BMP_temperature;BMP_pressure;BME280_temperature;BME280_humidity;BME280_pressure;Samples;Min_cycle;Max_cycle;Signal;HPM_P1;HPM_P2
2023/10/30 00:01:21;;;;;;;1.50;1.30;;;11.80;99.90;;;;;;5056755;28;20188;-43
2023/10/30 00:03:46;;;;;;;3.27;1.37;;;11.80;99.90;;;;;;5056637;28;20187;-43
2023/10/30 00:06:12;;;;;;;3.33;1.30;;;11.80;3.50;;;;;;5056818;28;20175;-44
2023/10/30 00:08:38;;;;;;;4.27;1.37;;;11.80;1.00;;;;;;5056548;28;20689;-44
2023/10/30 00:11:03;;;;;;;2.57;1.23;;;11.80;1.00;;;;;;5056567;28;20229;-43
2023/10/30 00:13:29;;;;;;;3.00;1.33;;;11.90;1.00;;;;;;5056404;28;20473;-43
2023/10/30 00:15:55;;;;;;;3.97;1.20;;;11.90;1.00;;;;;;5056440;28;20244;-43
2023/10/30 00:18:20;;;;;;;4.83;1.30;;;11.90;1.00;;;;;;5056409;28;20182;-44
2023/10/30 00:20:46;;;;;;;9.10;1.43;;;11.90;1.00;;;;;;5056099;28;20183;-43
2023/10/30 00:23:12;;;;;;;7.40;1.60;;;11.90;1.00;;;;;;5056393;28;20194;-43
2023/10/30 00:25:38;;;;;;;5.90;1.40;;;11.90;1.00;;;;;;5055997;28;20186;-43
2023/10/30 00:28:04;;;;;;;1.83;1.20;;;11.90;1.00;;;;;;5056274;28;20180;-43
2023/10/30 00:30:30;;;;;;;2.37;1.10;;;12.00;1.00;;;;;;5055958;28;20428;-44
2023/10/30 00:32:55;;;;;;;5.13;1.50;;;11.90;1.00;;;;;;5055525;28;20941;-43
2023/10/30 00:35:21;;;;;;;5.40;1.40;;;11.90;1.00;;;;;;5055915;28;20428;-44
2023/10/30 00:37:46;;;;;;;5.77;2.03;;;11.90;1.00;;;;;;5056341;28;20179;-44
2023/10/30 00:40:12;;;;;;;5.47;1.80;;;11.90;1.00;;;;;;5056092;28;20271;-43
2023/10/30 00:42:38;;;;;;;2.50;1.37;;;11.90;1.00;;;;;;5055753;28;20675;-44
2023/10/30 00:45:07;;;;;;;4.27;1.27;;;11.90;1.00;;;;;;5055626;28;20183;-44
2023/10/30 00:47:34;;;;;;;3.67;1.33;;;11.80;1.00;;;;;;5056083;28;20179;-43
2023/10/30 00:50:00;;;;;;;5.73;1.60;;;11.80;1.00;;;;;;5056191;28;20421;-43
2023/10/30 00:52:26;;;;;;;8.10;2.07;;;11.80;1.00;;;;;;5055457;28;20989;-43
2023/10/30 00:54:53;;;;;;;10.00;1.30;;;11.90;1.00;;;;;;5056057;28;20324;-43
2023/10/30 00:57:19;;;;;;;5.10;1.40;;;12.10;1.00;;;;;;5055772;28;20187;-43
2023/10/30 00:59:44;;;;;;;4.70;1.70;;;11.90;99.90;;;;;;5055896;28;20763;-44
2023/10/30 01:02:10;;;;;;;4.00;1.33;;;11.90;99.90;;;;;;5055629;28;20213;-44
2023/10/30 01:04:35;;;;;;;2.60;1.37;;;12.00;99.90;;;;;;5055482;28;20543;-43
2023/10/30 01:07:02;;;;;;;5.90;1.60;;;12.00;99.90;;;;;;5055846;28;20281;-43
2023/10/30 01:09:27;;;;;;;3.60;1.53;;;12.00;99.90;;;;;;5055641;28;20175;-43
2023/10/30 01:11:53;;;;;;;7.53;2.23;;;12.00;99.90;;;;;;5055310;28;20472;-43
2023/10/30 01:14:19;;;;;;;4.40;1.50;;;12.00;99.90;;;;;;5055479;28;20179;-43
2023/10/30 01:16:44;;;;;;;6.13;1.63;;;11.90;99.90;;;;;;5055575;28;20262;-43
2023/10/30 01:19:10;;;;;;;2.80;1.33;;;11.90;99.90;;;;;;5054924;28;20184;-43
2023/10/30 01:21:37;;;;;;;5.03;1.33;;;11.90;99.90;;;;;;5055191;28;20183;-43
2023/10/30 01:24:02;;;;;;;3.83;1.20;;;11.90;99.90;;;;;;5054906;28;20183;-43
2023/10/30 01:26:28;;;;;;;6.07;1.70;;;11.80;99.90;;;;;;5054810;28;20428;-43
2023/10/30 01:28:53;;;;;;;2.30;1.20;;;11.80;99.90;;;;;;5055062;28;20186;-43
2023/10/30 01:31:19;;;;;;;5.13;1.37;;;11.70;99.90;;;;;;5055154;28;20179;-43
2023/10/30 01:33:45;;;;;;;4.97;1.40;;;11.60;99.90;;;;;;5054965;28;20175;-43
2023/10/30 01:36:11;;;;;;;3.07;1.40;;;11.70;99.90;;;;;;5054984;28;20188;-43
2023/10/30 01:38:37;;;;;;;3.57;1.77;;;11.60;99.90;;;;;;5054612;28;20619;-43
2023/10/30 01:41:05;;;;;;;4.00;1.40;;;11.60;99.90;;;;;;5054514;28;20509;-43
2023/10/30 01:43:32;;;;;;;2.97;1.20;;;11.60;99.90;;;;;;5054777;28;20220;-43
2023/10/30 01:45:58;;;;;;;6.67;1.23;;;11.60;99.90;;;;;;5053480;28;20446;-43
2023/10/30 01:48:27;;;;;;;5.30;1.50;;;11.60;99.90;;;;;;5054726;28;20448;-43
2023/10/30 01:50:53;;;;;;;2.90;1.40;;;11.50;99.90;;;;;;5054307;28;20476;-43
2023/10/30 01:53:20;;;;;;;3.23;1.20;;;11.50;99.90;;;;;;5054612;28;20472;-43
2023/10/30 01:55:47;;;;;;;6.80;1.37;;;12.10;99.90;;;;;;5054849;28;20416;-43
2023/10/30 01:58:13;;;;;;;4.60;1.10;;;11.60;99.90;;;;;;5054740;28;20762;-44
2023/10/30 02:00:39;;;;;;;4.67;1.30;;;11.60;99.90;;;;;;5054444;28;20421;-43
2023/10/30 02:03:04;;;;;;;3.70;1.10;;;11.60;99.90;;;;;;5054228;28;20431;-43
2023/10/30 02:05:30;;;;;;;2.70;1.07;;;11.60;99.90;;;;;;5054254;28;20417;-43
2023/10/30 02:07:56;;;;;;;3.97;1.63;;;11.50;99.90;;;;;;5054648;28;20179;-44
2023/10/30 02:10:21;;;;;;;3.67;1.37;;;11.50;99.90;;;;;;5054535;28;20182;-43
2023/10/30 02:12:50;;;;;;;4.20;1.53;;;11.50;99.90;;;;;;5054452;28;20468;-43
2023/10/30 02:15:16;;;;;;;16.23;1.63;;;11.50;99.90;;;;;;5054380;28;20186;-43
2023/10/30 02:17:42;;;;;;;5.53;1.30;;;11.50;99.90;;;;;;5054200;28;20755;-43
2023/10/30 02:20:08;;;;;;;8.07;1.40;;;11.50;99.90;;;;;;5054244;28;20182;-43
2023/10/30 02:22:34;;;;;;;2.93;1.40;;;11.50;99.90;;;;;;5053993;28;20420;-43
2023/10/30 02:25:00;;;;;;;9.50;1.67;;;11.50;99.90;;;;;;5054076;28;20508;-43
2023/10/30 02:27:25;;;;;;;5.87;1.50;;;11.50;99.90;;;;;;5054011;28;20219;-43
2023/10/30 02:29:51;;;;;;;3.87;1.30;;;11.40;99.90;;;;;;5054173;28;20183;-43
2023/10/30 02:32:16;;;;;;;5.60;2.00;;;11.40;99.90;;;;;;5054030;28;20716;-44
2023/10/30 02:34:42;;;;;;;3.23;1.57;;;11.50;99.90;;;;;;5052604;28;20224;-44
2023/10/30 02:37:07;;;;;;;4.63;2.40;;;11.50;99.90;;;;;;5054275;28;20221;-43
2023/10/30 02:39:34;;;;;;;8.33;1.70;;;11.50;99.90;;;;;;5053842;28;20186;-43
2023/10/30 02:42:01;;;;;;;5.23;1.53;;;11.40;99.90;;;;;;5053887;28;20187;-43
2023/10/30 02:44:28;;;;;;;5.60;2.20;;;11.40;99.90;;;;;;5053830;28;20420;-44
2023/10/30 02:46:54;;;;;;;5.73;1.73;;;11.30;99.90;;;;;;5053476;28;20440;-44
2023/10/30 02:49:20;;;;;;;4.10;1.20;;;11.30;99.90;;;;;;5053748;28;20482;-43
2023/10/30 02:51:46;;;;;;;8.30;1.83;;;11.40;99.90;;;;;;5053650;28;20556;-43
2023/10/30 02:54:11;;;;;;;5.03;1.60;;;11.40;99.90;;;;;;5053812;28;20186;-44
2023/10/30 02:56:37;;;;;;;7.80;1.53;;;11.40;99.90;;;;;;5057278;28;20332;-44
2023/10/30 02:59:02;;;;;;;4.23;1.60;;;11.30;99.90;;;;;;5060341;28;20193;-43
2023/10/30 03:01:28;;;;;;;8.70;2.43;;;11.40;99.90;;;;;;5060074;28;20182;-43
2023/10/30 03:03:54;;;;;;;7.97;1.83;;;11.30;99.90;;;;;;5060199;28;20189;-43
2023/10/30 03:06:20;;;;;;;7.13;1.60;;;11.20;99.90;;;;;;5060265;28;20432;-43
2023/10/30 03:08:46;;;;;;;5.27;1.50;;;11.30;99.90;;;;;;5060280;28;20474;-43
2023/10/30 03:11:11;;;;;;;6.30;1.83;;;11.40;99.90;;;;;;5059979;28;20178;-44
2023/10/30 03:13:38;;;;;;;4.27;1.60;;;11.40;99.90;;;;;;5060083;28;20217;-44
2023/10/30 03:16:04;;;;;;;4.30;1.70;;;11.40;99.90;;;;;;5060223;28;20636;-44
2023/10/30 03:18:30;;;;;;;11.37;1.60;;;11.40;99.90;;;;;;5060160;28;20473;-44
2023/10/30 03:20:56;;;;;;;5.23;1.70;;;11.40;99.90;;;;;;5059948;28;20648;-44
2023/10/30 03:23:21;;;;;;;6.20;1.90;;;11.50;99.90;;;;;;5060118;28;20420;-44
2023/10/30 03:25:47;;;;;;;8.47;1.73;;;11.40;99.90;;;;;;5060430;28;20624;-44
2023/10/30 03:28:13;;;;;;;4.83;1.53;;;11.40;99.90;;;;;;5060256;28;20538;-43
2023/10/30 03:30:38;;;;;;;10.23;1.60;;;11.40;99.90;;;;;;5060280;28;20200;-44
2023/10/30 03:33:04;;;;;;;8.33;1.73;;;12.10;99.90;;;;;;5060372;28;20210;-44
2023/10/30 03:35:31;;;;;;;12.17;2.13;;;11.40;99.90;;;;;;5060216;28;20190;-44
2023/10/30 03:37:56;;;;;;;6.63;1.57;;;11.50;99.90;;;;;;5060521;28;20237;-44
2023/10/30 03:40:22;;;;;;;7.43;1.50;;;11.50;99.90;;;;;;5059765;28;20818;-44
2023/10/30 03:42:47;;;;;;;5.23;1.47;;;11.60;99.90;;;;;;5060264;28;20281;-44
2023/10/30 03:45:13;;;;;;;9.00;1.47;;;11.50;99.90;;;;;;5059970;28;20186;-44
2023/10/30 03:47:40;;;;;;;9.43;1.77;;;11.60;99.90;;;;;;5059934;28;20213;-44
2023/10/30 03:50:08;;;;;;;7.73;1.63;;;11.60;99.90;;;;;;5059828;28;20194;-44
2023/10/30 03:52:33;;;;;;;9.57;1.90;;;11.60;99.90;;;;;;5060093;28;20483;-44
2023/10/30 03:55:03;;;;;;;7.87;2.30;;;11.60;99.90;;;;;;5060196;28;20413;-44
2023/10/30 03:57:29;;;;;;;9.67;1.80;;;11.60;99.90;;;;;;5059591;28;20214;-44
2023/10/30 03:59:55;;;;;;;8.93;2.17;;;11.60;99.90;;;;;;5059515;28;20482;-44
2023/10/30 04:02:20;;;;;;;7.53;2.33;;;11.70;99.90;;;;;;5059552;28;20932;-43
2023/10/30 04:04:46;;;;;;;12.43;2.23;;;11.70;99.90;;;;;;5059477;28;20179;-44
2023/10/30 04:07:12;;;;;;;9.43;2.20;;;11.60;99.90;;;;;;5058487;28;20232;-44
2023/10/30 04:09:37;;;;;;;9.43;2.10;;;11.60;99.90;;;;;;5054552;28;20556;-43
2023/10/30 04:12:04;;;;;;;9.73;2.47;;;11.70;99.90;;;;;;5056273;28;20467;-43
2023/10/30 04:14:33;;;;;;;8.73;2.20;;;11.70;99.90;;;;;;5056418;28;20183;-43
2023/10/30 04:17:02;;;;;;;7.23;1.70;;;11.70;99.90;;;;;;5056125;28;20429;-43
2023/10/30 04:19:28;;;;;;;10.30;1.90;;;11.70;99.90;;;;;;5056447;28;20436;-44
2023/10/30 04:21:54;;;;;;;13.37;2.50;;;11.70;99.90;;;;;;5056404;28;20420;-43
2023/10/30 04:24:19;;;;;;;7.33;1.60;;;11.70;99.90;;;;;;5056091;28;20182;-44
2023/10/30 04:26:45;;;;;;;6.80;2.03;;;11.70;99.90;;;;;;5056240;28;20232;-44
2023/10/30 04:29:10;;;;;;;4.90;1.53;;;11.70;99.90;;;;;;5056693;28;20209;-44
2023/10/30 04:31:36;;;;;;;6.60;1.50;;;11.70;99.90;;;;;;5056314;28;20190;-44
2023/10/30 04:34:01;;;;;;;12.60;2.20;;;11.60;99.90;;;;;;5056497;28;20176;-46
2023/10/30 04:36:27;;;;;;;11.20;2.53;;;11.70;99.90;;;;;;5056020;28;20188;-44
2023/10/30 04:38:52;;;;;;;10.17;2.30;;;11.60;99.90;;;;;;5056107;28;20195;-44
2023/10/30 04:41:18;;;;;;;6.50;1.50;;;11.60;99.90;;;;;;5055997;28;20182;-44
2023/10/30 04:43:44;;;;;;;17.10;2.43;;;11.70;99.90;;;;;;5055995;28;20692;-44
2023/10/30 04:46:09;;;;;;;6.97;1.70;;;11.60;99.90;;;;;;5056269;28;20417;-44
2023/10/30 04:48:35;;;;;;;10.73;2.73;;;11.60;99.90;;;;;;5055756;28;20178;-44
2023/10/30 04:51:01;;;;;;;7.37;1.53;;;11.50;99.90;;;;;;5055571;28;20238;-44
2023/10/30 04:53:29;;;;;;;13.80;2.70;;;11.60;99.90;;;;;;5055859;28;20545;-44
2023/10/30 04:55:57;;;;;;;12.93;2.13;;;11.60;99.90;;;;;;5055781;28;20194;-44
2023/10/30 04:58:22;;;;;;;7.67;1.90;;;11.60;99.90;;;;;;5055700;28;20417;-44
2023/10/30 05:00:48;;;;;;;7.20;1.60;;;11.60;99.90;;;;;;5055305;28;20417;-44
2023/10/30 05:03:14;;;;;;;6.70;1.90;;;11.50;99.90;;;;;;5055329;28;20187;-44
2023/10/30 05:05:39;;;;;;;9.90;2.03;;;11.60;99.90;;;;;;5055617;28;20189;-44
2023/10/30 05:08:05;;;;;;;8.80;2.07;;;11.60;99.90;;;;;;5055581;28;20666;-44
2023/10/30 05:10:30;;;;;;;11.27;2.00;;;11.60;99.90;;;;;;5055665;28;20182;-44
2023/10/30 05:12:56;;;;;;;8.10;1.80;;;11.50;99.90;;;;;;5055654;28;20599;-44
2023/10/30 05:15:22;;;;;;;6.80;2.10;;;11.50;99.90;;;;;;5055512;28;20185;-43
2023/10/30 05:17:47;;;;;;;9.03;2.10;;;11.50;99.90;;;;;;5055451;28;20191;-44
2023/10/30 05:20:13;;;;;;;9.17;3.63;;;11.50;99.90;;;;;;5055193;28;20190;-44
2023/10/30 05:22:39;;;;;;;9.23;2.00;;;11.40;99.90;;;;;;5054827;28;20285;-44
2023/10/30 05:25:05;;;;;;;10.70;2.13;;;11.40;99.90;;;;;;5055016;28;20421;-44
2023/10/30 05:27:31;;;;;;;10.20;1.87;;;11.40;99.90;;;;;;5055154;28;20423;-44
2023/10/30 05:29:57;;;;;;;16.27;2.10;;;11.40;99.90;;;;;;5054886;28;20425;-44
2023/10/30 05:32:23;;;;;;;10.53;2.13;;;11.40;99.90;;;;;;5055191;28;20461;-44
2023/10/30 05:34:49;;;;;;;11.83;2.73;;;11.80;99.90;;;;;;5054699;28;20218;-44
2023/10/30 05:37:15;;;;;;;9.90;2.20;;;11.30;99.90;;;;;;5054749;28;20188;-45
2023/10/30 05:39:42;;;;;;;15.63;1.90;;;11.40;99.90;;;;;;5054911;28;20440;-44
2023/10/30 05:42:08;;;;;;;12.27;2.20;;;11.30;99.90;;;;;;5054522;28;20895;-44
2023/10/30 05:44:33;;;;;;;9.87;2.07;;;11.30;99.90;;;;;;5054845;28;20420;-44
2023/10/30 05:46:59;;;;;;;8.73;2.00;;;11.30;99.90;;;;;;5054844;28;20182;-44
2023/10/30 05:49:26;;;;;;;8.53;2.20;;;11.30;1.00;;;;;;5054599;28;20273;-45
2023/10/30 05:51:55;;;;;;;13.97;2.27;;;11.30;99.90;;;;;;5054921;28;20234;-44
2023/10/30 05:54:22;;;;;;;10.97;2.33;;;11.20;99.90;;;;;;5054436;28;20740;-44
2023/10/30 05:56:48;;;;;;;5.13;1.73;;;11.20;1.00;;;;;;5054875;28;20417;-44
2023/10/30 05:59:14;;;;;;;6.10;1.80;;;11.50;1.00;;;;;;5054722;28;20405;-44
2023/10/30 06:01:39;;;;;;;9.20;1.97;;;11.10;1.00;;;;;;5054488;28;20971;-44
2023/10/30 06:04:05;;;;;;;13.70;2.93;;;11.20;1.00;;;;;;5054257;28;20175;-44
2023/10/30 06:06:31;;;;;;;11.10;1.90;;;11.20;1.00;;;;;;5054564;28;20231;-45
2023/10/30 06:08:56;;;;;;;7.30;2.57;;;11.10;1.00;;;;;;5054373;28;20643;-44
2023/10/30 06:11:22;;;;;;;11.60;2.30;;;11.00;1.00;;;;;;5054030;28;20186;-44
2023/10/30 06:13:48;;;;;;;10.80;2.13;;;11.00;1.00;;;;;;5054050;28;20221;-44
2023/10/30 06:16:18;;;;;;;8.03;2.30;;;11.00;1.00;;;;;;5054671;28;20179;-44
2023/10/30 06:18:47;;;;;;;13.13;2.30;;;11.00;1.00;;;;;;5054258;28;20273;-44
2023/10/30 06:21:18;;;;;;;8.40;1.90;;;11.00;1.00;;;;;;5053844;28;21142;-44
2023/10/30 06:23:44;;;;;;;4.93;1.80;;;11.00;1.00;;;;;;5054107;28;20845;-44
2023/10/30 06:26:11;;;;;;;9.60;1.90;;;11.00;1.00;;;;;;5053881;28;20456;-44
2023/10/30 06:28:38;;;;;;;13.53;2.63;;;11.00;1.00;;;;;;5054304;28;20267;-44
2023/10/30 06:31:04;;;;;;;7.83;2.30;;;11.00;1.00;;;;;;5053900;28;20467;-44
2023/10/30 06:33:33;;;;;;;10.70;2.50;;;10.90;1.00;;;;;;5054080;28;20511;-44
2023/10/30 06:36:00;;;;;;;11.00;2.30;;;10.90;99.30;;;;;;5054333;28;20405;-44
2023/10/30 06:38:26;;;;;;;10.23;1.87;;;10.80;99.90;;;;;;5054002;28;20500;-44
2023/10/30 06:40:52;;;;;;;14.60;2.73;;;10.80;99.90;;;;;;5053861;28;20420;-44
2023/10/30 06:43:18;;;;;;;7.67;1.80;;;10.80;99.90;;;;;;5054009;28;20417;-44
2023/10/30 06:45:43;;;;;;;8.57;2.30;;;10.80;99.90;;;;;;5053513;28;20432;-43
2023/10/30 06:48:09;;;;;;;6.47;2.40;;;10.80;99.90;;;;;;5053781;28;20178;-43
2023/10/30 06:50:34;;;;;;;10.53;2.20;;;10.80;99.90;;;;;;5053315;28;20231;-43
2023/10/30 06:53:00;;;;;;;10.33;2.67;;;10.80;99.90;;;;;;5053667;28;20301;-44
2023/10/30 06:55:25;;;;;;;8.30;2.03;;;10.80;99.90;;;;;;5053401;28;20264;-44
2023/10/30 06:57:51;;;;;;;7.73;2.60;;;10.80;99.90;;;;;;5053725;28;20197;-43
2023/10/30 07:00:18;;;;;;;9.33;2.20;;;10.70;99.90;;;;;;5053661;28;20656;-44
2023/10/30 07:02:44;;;;;;;7.20;2.30;;;10.70;1.00;;;;;;5053368;28;20218;-44
2023/10/30 07:05:10;;;;;;;16.53;2.43;;;10.80;1.00;;;;;;5053713;28;20424;-44
2023/10/30 07:07:36;;;;;;;17.03;2.40;;;10.80;1.00;;;;;;5053813;28;20186;-44
2023/10/30 07:10:02;;;;;;;11.40;2.00;;;10.80;1.00;;;;;;5053636;28;20587;-44
2023/10/30 07:12:29;;;;;;;21.13;3.07;;;10.80;1.00;;;;;;5053370;28;20753;-44
2023/10/30 07:14:54;;;;;;;7.23;2.17;;;10.90;1.00;;;;;;5053870;28;20405;-44
2023/10/30 07:17:20;;;;;;;9.70;2.50;;;11.00;99.90;;;;;;5053043;28;20854;-44
2023/10/30 07:19:46;;;;;;;15.03;2.20;;;10.80;99.90;;;;;;5053817;28;20179;-44
2023/10/30 07:22:12;;;;;;;6.80;1.80;;;10.80;99.90;;;;;;5053538;28;20543;-44
2023/10/30 07:24:38;;;;;;;6.57;2.33;;;11.90;1.00;;;;;;5053682;28;20413;-44
2023/10/30 07:27:03;;;;;;;8.53;2.60;;;10.80;1.00;;;;;;5053516;28;20421;-44
2023/10/30 07:29:29;;;;;;;7.00;2.33;;;10.80;1.00;;;;;;5053503;28;20655;-44
2023/10/30 07:31:55;;;;;;;11.70;2.00;;;10.80;99.90;;;;;;5053294;28;20221;-44
2023/10/30 07:34:21;;;;;;;6.63;2.43;;;10.90;1.00;;;;;;5053260;28;20675;-44
2023/10/30 07:36:47;;;;;;;10.60;2.30;;;10.80;1.00;;;;;;5053617;28;20515;-44
2023/10/30 07:39:14;;;;;;;9.47;2.50;;;12.00;1.00;;;;;;5053553;28;20884;-44
2023/10/30 07:41:39;;;;;;;7.07;2.17;;;10.80;1.00;;;;;;5053504;28;20521;-44
2023/10/30 07:44:07;;;;;;;10.33;2.13;;;10.70;1.00;;;;;;5055473;28;20414;-44
2023/10/30 07:46:32;;;;;;;9.27;2.47;;;10.90;1.00;;;;;;5057034;28;20185;-44
2023/10/30 07:49:01;;;;;;;10.10;2.33;;;10.80;1.00;;;;;;5057100;28;20761;-44
2023/10/30 07:51:27;;;;;;;12.67;2.67;;;10.80;1.00;;;;;;5057001;28;20266;-44
2023/10/30 07:53:52;;;;;;;11.87;2.43;;;10.80;1.00;;;;;;5056853;28;20542;-43
2023/10/30 07:56:18;;;;;;;11.10;2.80;;;10.80;57.70;;;;;;5056528;28;20182;-44
2023/10/30 07:58:44;;;;;;;9.00;2.60;;;10.90;99.90;;;;;;5056810;28;20189;-44
2023/10/30 08:01:10;;;;;;;14.50;3.00;;;11.10;1.00;;;;;;5056577;28;20417;-43
2023/10/30 08:03:36;;;;;;;12.23;2.90;;;11.10;1.00;;;;;;5056901;28;20260;-44
2023/10/30 08:06:01;;;;;;;14.37;2.40;;;11.10;99.90;;;;;;5056717;28;20913;-43
2023/10/30 08:08:28;;;;;;;7.20;2.40;;;11.20;99.90;;;;;;5056343;28;20644;-43
2023/10/30 08:10:54;;;;;;;12.63;2.80;;;11.40;99.90;;;;;;5056588;28;20208;-44
2023/10/30 08:13:20;;;;;;;11.40;2.87;;;12.10;1.00;;;;;;5056199;28;20464;-43
2023/10/30 08:15:46;;;;;;;8.73;1.90;;;12.60;99.90;;;;;;5056691;28;20249;-43
2023/10/30 08:18:12;;;;;;;7.03;1.90;;;12.70;99.90;;;;;;5056248;28;20406;-43
2023/10/30 08:20:37;;;;;;;13.20;2.53;;;12.60;99.90;;;;;;5056185;28;20265;-43
2023/10/30 08:23:03;;;;;;;10.30;2.17;;;12.40;99.90;;;;;;5056237;28;20180;-43
2023/10/30 08:25:29;;;;;;;8.43;1.90;;;12.20;99.90;;;;;;5056049;28;20660;-43
2023/10/30 08:27:57;;;;;;;8.10;1.63;;;12.20;99.90;;;;;;5055951;28;20236;-42
2023/10/30 08:30:24;;;;;;;9.47;2.13;;;12.10;99.90;;;;;;5056423;28;20184;-44
2023/10/30 08:32:50;;;;;;;9.17;2.53;;;12.10;99.90;;;;;;5056641;28;20461;-44
2023/10/30 08:35:15;;;;;;;9.53;2.00;;;12.10;99.90;;;;;;5055973;28;20931;-44
2023/10/30 08:37:41;;;;;;;9.57;2.00;;;12.10;99.90;;;;;;5056384;28;20187;-44
2023/10/30 08:40:08;;;;;;;6.40;2.10;;;12.10;99.90;;;;;;5056197;28;20643;-44
2023/10/30 08:42:34;;;;;;;14.27;2.00;;;12.10;99.90;;;;;;5056029;28;20187;-44
2023/10/30 08:44:59;;;;;;;9.83;2.00;;;12.20;99.90;;;;;;5055994;28;20953;-44
2023/10/30 08:47:25;;;;;;;13.70;2.03;;;12.30;99.90;;;;;;5056117;28;20183;-44
2023/10/30 08:49:50;;;;;;;9.43;2.17;;;12.30;99.90;;;;;;5055849;28;20187;-44
2023/10/30 08:52:16;;;;;;;10.20;2.30;;;12.40;99.90;;;;;;5055389;28;20236;-44
2023/10/30 08:54:43;;;;;;;9.70;2.03;;;12.40;99.90;;;;;;5055511;28;20242;-44
2023/10/30 08:57:08;;;;;;;17.03;2.53;;;12.50;99.90;;;;;;5056190;28;20443;-44
2023/10/30 08:59:38;;;;;;;7.83;2.17;;;12.50;99.90;;;;;;5055869;28;20183;-44
2023/10/30 09:02:05;;;;;;;8.70;2.33;;;12.50;99.90;;;;;;5055926;28;20190;-44
2023/10/30 09:04:31;;;;;;;7.20;2.03;;;12.60;99.90;;;;;;5055302;28;20428;-44
2023/10/30 09:06:57;;;;;;;13.43;2.60;;;12.60;99.90;;;;;;5055533;28;20418;-44
2023/10/30 09:09:22;;;;;;;12.60;2.27;;;12.70;99.90;;;;;;5055406;28;20167;-44
2023/10/30 09:11:48;;;;;;;12.13;3.13;;;12.70;96.00;;;;;;5055433;28;20186;-44
2023/10/30 09:14:14;;;;;;;13.67;2.30;;;12.80;99.90;;;;;;5055873;28;20179;-44
2023/10/30 09:16:39;;;;;;;12.90;2.57;;;12.80;94.70;;;;;;5055070;28;20623;-44
2023/10/30 09:19:05;;;;;;;13.03;2.17;;;12.90;84.70;;;;;;5055081;28;20202;-44
2023/10/30 09:21:30;;;;;;;12.90;2.20;;;12.90;70.20;;;;;;5055306;28;20273;-44
2023/10/30 09:23:56;;;;;;;9.73;2.90;;;13.10;42.80;;;;;;5054869;28;20180;-44
2023/10/30 09:26:21;;;;;;;10.70;2.17;;;13.10;25.50;;;;;;5055139;28;20210;-44
2023/10/30 09:28:47;;;;;;;8.77;1.80;;;13.20;22.80;;;;;;5055127;28;20663;-44
2023/10/30 09:31:12;;;;;;;7.67;1.90;;;13.20;3.90;;;;;;5055159;28;20713;-44
2023/10/30 09:33:38;;;;;;;6.37;1.60;;;13.30;12.30;;;;;;5055198;28;20214;-44
2023/10/30 09:36:05;;;;;;;8.20;2.80;;;13.40;1.00;;;;;;5054736;28;20176;-44
2023/10/30 09:38:31;;;;;;;9.40;2.17;;;13.30;1.00;;;;;;5054642;28;20272;-44
2023/10/30 09:41:01;;;;;;;7.13;2.10;;;13.40;1.00;;;;;;5054859;28;20913;-45
2023/10/30 09:43:30;;;;;;;8.07;1.87;;;13.50;1.00;;;;;;5054965;28;20263;-44
2023/10/30 09:46:00;;;;;;;13.93;2.90;;;13.60;1.00;;;;;;5054846;28;20755;-44
2023/10/30 09:48:28;;;;;;;4.83;1.73;;;13.60;1.00;;;;;;5054611;28;20422;-44
2023/10/30 09:50:54;;;;;;;14.60;2.13;;;13.80;1.00;;;;;;5054526;28;20526;-44
2023/10/30 09:53:20;;;;;;;7.90;2.10;;;13.90;1.00;;;;;;5054470;28;20561;-44
2023/10/30 09:55:47;;;;;;;13.23;1.93;;;14.10;1.00;;;;;;5054953;28;20434;-45
2023/10/30 09:58:13;;;;;;;10.73;2.50;;;14.30;1.00;;;;;;5055021;28;20276;-44
2023/10/30 10:00:39;;;;;;;9.20;1.90;;;14.50;1.00;;;;;;5054471;28;20453;-44
2023/10/30 10:03:06;;;;;;;10.60;2.93;;;14.60;1.00;;;;;;5054236;28;20188;-44
2023/10/30 10:05:31;;;;;;;6.97;1.70;;;14.80;1.00;;;;;;5054257;28;20195;-44
2023/10/30 10:07:57;;;;;;;60.30;28.67;;;15.00;1.00;;;;;;5054397;28;20413;-44
2023/10/30 10:10:24;;;;;;;10.80;2.20;;;15.10;1.00;;;;;;5054537;28;20175;-44
2023/10/30 10:12:53;;;;;;;13.10;4.30;;;15.10;1.00;;;;;;5054522;28;20450;-44
2023/10/30 10:15:20;;;;;;;7.20;2.60;;;15.20;1.00;;;;;;5054367;28;20778;-44
2023/10/30 10:17:46;;;;;;;12.87;2.27;;;15.30;1.00;;;;;;5054287;28;20793;-45
2023/10/30 10:20:12;;;;;;;6.97;2.13;;;15.40;1.00;;;;;;5054381;28;20425;-44
2023/10/30 10:22:39;;;;;;;7.70;2.53;;;15.40;1.00;;;;;;5053899;28;20421;-44
2023/10/30 10:25:10;;;;;;;9.07;2.20;;;15.40;1.00;;;;;;5054131;28;20414;-44
2023/10/30 10:27:40;;;;;;;9.67;1.80;;;15.40;1.00;;;;;;5053794;28;20511;-44
2023/10/30 10:30:06;;;;;;;8.60;1.97;;;16.10;1.00;;;;;;5054516;28;20455;-44
2023/10/30 10:32:32;;;;;;;6.33;2.03;;;16.90;1.00;;;;;;5053787;28;20996;-44
2023/10/30 10:35:02;;;;;;;7.67;2.17;;;17.80;1.00;;;;;;5054326;28;20425;-44
2023/10/30 10:37:28;;;;;;;13.30;2.10;;;18.20;1.00;;;;;;5053911;28;20191;-44
2023/10/30 10:39:54;;;;;;;8.13;2.10;;;18.40;1.00;;;;;;5053820;28;20421;-44
2023/10/30 10:42:24;;;;;;;8.13;2.30;;;18.80;1.00;;;;;;5053669;28;20504;-44
2023/10/30 10:44:52;;;;;;;8.13;2.00;;;19.20;1.00;;;;;;5053906;28;20436;-43
2023/10/30 10:47:18;;;;;;;11.60;2.40;;;19.90;1.00;;;;;;5053813;28;20424;-44
2023/10/30 10:49:44;;;;;;;12.87;3.50;;;20.10;1.00;;;;;;5053810;28;20409;-44
2023/10/30 10:52:13;;;;;;;9.23;2.27;;;20.50;1.00;;;;;;5054292;28;20520;-44
2023/10/30 10:54:46;;;;;;;9.60;2.07;;;21.00;1.00;;;;;;5053633;28;20483;-44
2023/10/30 10:57:17;;;;;;;4.73;1.77;;;21.70;1.00;;;;;;5053853;28;20413;-44
2023/10/30 10:59:45;;;;;;;6.80;1.90;;;22.30;1.00;;;;;;5053760;28;20409;-44
2023/10/30 11:02:13;;;;;;;8.07;2.00;;;22.90;1.00;;;;;;5053568;28;20460;-44
2023/10/30 11:04:39;;;;;;;7.03;2.37;;;23.10;1.00;;;;;;5053653;28;20413;-44
2023/10/30 11:07:11;;;;;;;5.40;1.90;;;22.50;1.00;;;;;;5053309;28;20432;-44
2023/10/30 11:09:44;;;;;;;13.73;1.97;;;21.60;1.00;;;;;;5053825;28;20429;-45
2023/10/30 11:12:23;;;;;;;12.87;2.53;;;20.40;1.00;;;;;;5053665;28;20457;-45
2023/10/30 11:15:03;;;;;;;7.70;1.80;;;20.60;1.00;;;;;;5053712;28;20414;-45
2023/10/30 11:17:28;;;;;;;6.40;1.90;;;20.90;1.00;;;;;;5055344;28;20414;-45
2023/10/30 11:20:06;;;;;;;11.93;2.00;;;20.40;1.00;;;;;;5057852;28;20723;-46
2023/10/30 11:22:42;;;;;;;9.00;2.10;;;20.80;1.00;;;;;;5057305;28;20186;-45
2023/10/30 11:25:35;;;;;;;8.23;2.30;;;21.30;1.00;;;;;;5057885;28;20469;-45
2023/10/30 11:28:02;;;;;;;10.10;2.47;;;21.50;1.00;;;;;;5057838;28;20774;-45
2023/10/30 11:30:31;;;;;;;21.00;8.10;;;21.10;1.00;;;;;;5057372;28;20414;-44
2023/10/30 11:32:58;;;;;;;12.40;3.63;;;20.70;1.00;;;;;;5057255;28;20476;-45
2023/10/30 11:35:28;;;;;;;10.90;3.07;;;20.40;1.00;;;;;;5056892;28;20424;-45
2023/10/30 11:37:54;;;;;;;8.33;2.50;;;19.60;1.00;;;;;;5057245;28;20445;-45
2023/10/30 11:40:20;;;;;;;7.60;2.23;;;18.60;1.00;;;;;;5056949;28;20428;-45
2023/10/30 11:42:45;;;;;;;9.47;2.30;;;17.60;1.00;;;;;;5057233;28;20887;-45
2023/10/30 11:45:15;;;;;;;9.57;2.40;;;16.80;1.00;;;;;;5057054;28;20210;-45
2023/10/30 11:47:44;;;;;;;5.17;1.90;;;17.00;1.00;;;;;;5057065;28;20583;-45
2023/10/30 11:50:09;;;;;;;7.67;2.40;;;17.60;1.00;;;;;;5056813;28;20777;-45
2023/10/30 11:52:37;;;;;;;8.93;2.37;;;17.80;1.00;;;;;;5057424;28;20456;-45
2023/10/30 11:55:06;;;;;;;11.13;2.60;;;17.60;1.00;;;;;;5056975;28;20198;-45
2023/10/30 11:57:33;;;;;;;7.33;2.07;;;18.00;1.00;;;;;;5056997;28;20416;-45
2023/10/30 12:00:02;;;;;;;7.23;2.00;;;18.70;1.00;;;;;;5056825;28;20410;-45
2023/10/30 12:02:28;;;;;;;11.27;2.30;;;19.50;1.00;;;;;;5056746;28;20425;-44
2023/10/30 12:04:54;;;;;;;5.77;1.87;;;20.20;1.00;;;;;;5056462;28;20500;-45
2023/10/30 12:07:19;;;;;;;10.03;2.17;;;20.30;1.00;;;;;;5056558;28;20236;-44
2023/10/30 12:09:45;;;;;;;10.40;2.63;;;19.90;1.00;;;;;;5056721;28;20186;-44
2023/10/30 12:12:10;;;;;;;3.90;2.00;;;19.90;1.00;;;;;;5056672;28;20686;-44
2023/10/30 12:14:38;;;;;;;9.37;2.47;;;20.30;1.00;;;;;;5056180;28;20257;-45
2023/10/30 12:17:04;;;;;;;6.20;2.03;;;20.70;1.00;;;;;;5056579;28;20171;-44
2023/10/30 12:19:30;;;;;;;14.30;3.80;;;21.10;1.00;;;;;;5056384;28;20463;-44
2023/10/30 12:21:56;;;;;;;7.33;2.17;;;21.50;1.00;;;;;;5056509;28;20421;-45
2023/10/30 12:24:24;;;;;;;4.20;1.90;;;21.50;1.00;;;;;;5056268;28;20182;-44
2023/10/30 12:26:50;;;;;;;12.13;6.03;;;21.20;1.00;;;;;;5056290;28;20424;-44
2023/10/30 12:29:23;;;;;;;8.13;2.90;;;21.00;1.00;;;;;;5055719;28;20414;-44
2023/10/30 12:32:03;;;;;;;8.87;2.10;;;20.90;1.00;;;;;;5056101;28;20187;-44
2023/10/30 12:34:30;;;;;;;9.73;2.67;;;21.40;1.00;;;;;;5056735;28;20424;-44
2023/10/30 12:36:56;;;;;;;7.53;2.30;;;21.10;1.00;;;;;;5056478;28;20409;-44
2023/10/30 12:39:22;;;;;;;6.50;2.20;;;20.90;1.00;;;;;;5056283;28;20417;-45
2023/10/30 12:41:52;;;;;;;13.10;2.20;;;21.30;1.00;;;;;;5055731;28;20688;-45
2023/10/30 12:44:18;;;;;;;9.37;2.20;;;22.10;1.00;;;;;;5056443;28;20197;-44